< < Back
Terminal Aerodrome Forecast


Current Version              Previous Versions:   1  2  3  4  5  6  7  8  9  

Terminal Aerodrome Forecast

956
FTUS42 KCHS 271927 AAA
TAFCHS
TAF AMD
KCHS 271927Z 2719/2818 15009KT P6SM VCSH SCT030
     FM272200 12009KT P6SM SCT040
     FM280200 VRB04KT P6SM FEW015 SCT050=

Latest METAR

682
SAUS80 KWBC 272200 CCA
MTRCHS
METAR KCHS 272156Z 11010KT 10SM SCT030 SCT040 BKN250 30/22 A2999 RMK AO2
SLP154 T03000217


USA.gov is the U.S. government's official web portal to all federal, state and local government web resources and services.